Time;durP1;ratioP1;P1;durP2;ratioP2;P2;SDS_P1;SDS_P2;PMS_P1;PMS_P2;Temp;Humidity;BMP_temperature;BMP_pressure;BME280_temperature;BME280_humidity;BME280_pressure;Samples;Min_cycle;Max_cycle;Signal;HPM_P1;HPM_P2
2021/03/14 00:01:39;;;;;;;0.50;0.50;;;4.20;99.90;;;;;;4974182;28;20205;-83
2021/03/14 00:04:06;;;;;;;0.50;0.40;;;4.20;99.90;;;;;;4975037;28;20204;-85
2021/03/14 00:06:33;;;;;;;0.60;0.50;;;4.70;99.90;;;;;;4974978;28;20247;-83
2021/03/14 00:08:59;;;;;;;1.88;0.55;;;4.30;99.90;;;;;;4974955;28;20302;-82
2021/03/14 00:11:25;;;;;;;0.50;0.50;;;4.30;99.90;;;;;;4974483;28;20688;-84
2021/03/14 00:13:52;;;;;;;1.00;0.55;;;4.30;99.90;;;;;;4973936;28;20677;-82
2021/03/14 00:16:18;;;;;;;0.40;0.40;;;4.30;99.90;;;;;;4973262;28;20205;-84
2021/03/14 00:18:45;;;;;;;1.13;0.50;;;4.40;99.90;;;;;;4973304;28;20303;-85
2021/03/14 00:21:12;;;;;;;0.70;0.50;;;4.30;99.90;;;;;;4974544;28;20300;-81
2021/03/14 00:23:39;;;;;;;0.70;0.50;;;4.30;99.90;;;;;;4974464;28;20228;-82
2021/03/14 00:26:06;;;;;;;0.60;0.60;;;4.30;99.90;;;;;;4973203;28;20731;-83
2021/03/14 00:28:33;;;;;;;0.40;0.40;;;4.30;99.90;;;;;;4974306;28;20241;-83
2021/03/14 00:30:59;;;;;;;0.55;0.55;;;4.40;99.90;;;;;;4973877;28;20686;-84
2021/03/14 00:33:26;;;;;;;1.35;0.80;;;4.40;99.90;;;;;;4973126;28;20680;-82
2021/03/14 00:35:52;;;;;;;1.55;0.82;;;4.50;99.90;;;;;;4973816;28;20296;-86
2021/03/14 00:38:19;;;;;;;0.40;0.40;;;4.50;99.90;;;;;;4974297;28;20236;-86
2021/03/14 00:40:46;;;;;;;3.83;0.80;;;4.30;99.90;;;;;;4974676;28;20232;-87
2021/03/14 00:43:12;;;;;;;0.50;0.50;;;4.40;99.90;;;;;;4973006;28;20201;-83
2021/03/14 00:45:40;;;;;;;1.20;0.55;;;4.30;99.90;;;;;;4975666;28;20232;-88
2021/03/14 00:48:08;;;;;;;1.30;0.65;;;4.30;99.90;;;;;;4974118;28;20297;-87
2021/03/14 00:50:38;;;;;;;0.55;0.45;;;4.20;99.90;;;;;;4975003;28;20292;-88
2021/03/14 00:53:05;;;;;;;1.00;0.75;;;4.10;99.90;;;;;;4975157;28;20236;-83
2021/03/14 00:55:33;;;;;;;0.82;0.50;;;4.00;99.90;;;;;;4973436;28;20677;-84
2021/03/14 00:57:59;;;;;;;0.70;0.45;;;4.00;99.90;;;;;;4940293;28;20236;-84
2021/03/14 01:00:26;;;;;;;0.40;0.40;;;4.00;99.90;;;;;;4974619;28;20292;-88
2021/03/14 01:02:53;;;;;;;0.47;0.38;;;4.00;99.90;;;;;;4971791;28;20716;-89
2021/03/14 01:05:19;;;;;;;2.35;0.50;;;4.00;99.90;;;;;;4972029;28;20344;-87
2021/03/14 01:07:46;;;;;;;0.40;0.40;;;3.90;99.90;;;;;;4973817;28;20296;-90
2021/03/14 01:10:13;;;;;;;0.93;0.63;;;3.80;99.90;;;;;;4974331;28;20355;-89
2021/03/14 01:12:41;;;;;;;0.50;0.40;;;3.90;99.90;;;;;;4974064;28;20335;-91
2021/03/14 01:15:10;;;;;;;0.60;0.32;;;3.80;99.90;;;;;;4974282;28;20240;-87
2021/03/14 01:17:36;;;;;;;0.68;0.57;;;3.80;99.90;;;;;;4973543;28;20297;-86
2021/03/14 01:20:04;;;;;;;0.40;0.40;;;3.80;99.90;;;;;;4973250;28;20299;-86
2021/03/14 01:22:30;;;;;;;0.90;0.50;;;3.80;99.90;;;;;;4976678;28;20296;-84
2021/03/14 01:24:57;;;;;;;0.50;0.50;;;3.90;99.90;;;;;;4975131;28;20240;-87
2021/03/14 01:27:23;;;;;;;0.60;0.50;;;3.80;99.90;;;;;;4976866;28;20205;-87
2021/03/14 01:29:50;;;;;;;0.82;0.55;;;3.90;99.90;;;;;;4977149;28;20240;-87
2021/03/14 01:32:17;;;;;;;5.70;0.63;;;3.90;99.90;;;;;;4975711;28;20268;-86
2021/03/14 01:34:43;;;;;;;0.73;0.57;;;3.90;99.90;;;;;;4975304;28;20627;-86
2021/03/14 01:37:09;;;;;;;0.60;0.47;;;4.00;99.90;;;;;;4977042;28;20288;-87
2021/03/14 01:39:36;;;;;;;0.60;0.40;;;4.00;99.90;;;;;;4976712;28;20327;-88
2021/03/14 01:42:03;;;;;;;0.75;0.50;;;4.00;99.90;;;;;;4975461;28;20659;-86
2021/03/14 01:44:29;;;;;;;0.60;0.50;;;4.10;99.90;;;;;;4975168;28;20292;-86
2021/03/14 01:46:57;;;;;;;0.55;0.40;;;4.30;99.90;;;;;;4975890;28;20292;-88
2021/03/14 01:49:23;;;;;;;0.45;0.40;;;4.00;99.90;;;;;;4975143;28;20302;-86
2021/03/14 01:51:51;;;;;;;0.50;0.40;;;4.00;99.90;;;;;;4976747;28;20228;-88
2021/03/14 01:54:17;;;;;;;0.60;0.40;;;3.90;99.90;;;;;;4975195;28;20236;-87
2021/03/14 01:56:43;;;;;;;2.13;0.50;;;3.90;99.90;;;;;;4976500;28;20205;-86
2021/03/14 01:59:10;;;;;;;0.47;0.47;;;4.00;99.90;;;;;;4976768;28;20288;-86
2021/03/14 02:01:36;;;;;;;0.60;0.60;;;3.90;99.90;;;;;;4975230;28;20296;-84
2021/03/14 02:04:04;;;;;;;0.50;0.47;;;3.90;99.90;;;;;;4976168;28;20208;-85
2021/03/14 02:06:31;;;;;;;0.40;0.40;;;4.00;99.90;;;;;;4975371;28;20244;-85
2021/03/14 02:08:57;;;;;;;0.50;0.50;;;3.90;99.90;;;;;;4976089;28;20688;-87
2021/03/14 02:11:29;;;;;;;1.60;0.88;;;3.90;99.90;;;;;;4976533;28;20217;-87
2021/03/14 02:13:57;;;;;;;0.50;0.50;;;3.70;99.90;;;;;;4976813;28;20296;-87
2021/03/14 02:16:27;;;;;;;0.40;0.40;;;3.70;99.90;;;;;;4976589;28;20231;-89
2021/03/14 02:18:58;;;;;;;0.77;0.45;;;3.70;99.90;;;;;;4974128;28;20291;-87
2021/03/14 02:21:26;;;;;;;0.68;0.55;;;3.80;99.90;;;;;;4976602;28;20248;-86
2021/03/14 02:23:57;;;;;;;0.40;0.40;;;3.80;99.90;;;;;;4976529;28;20299;-91
2021/03/14 02:26:27;;;;;;;0.40;0.40;;;4.00;99.90;;;;;;4977325;28;20348;-87
2021/03/14 02:28:56;;;;;;;1.90;0.65;;;3.80;99.90;;;;;;4976388;28;20287;-88
2021/03/14 02:31:25;;;;;;;0.40;0.40;;;3.80;99.90;;;;;;4977175;28;20213;-88
2021/03/14 02:33:57;;;;;;;0.50;0.50;;;3.80;99.90;;;;;;4974624;28;20205;-88
2021/03/14 02:36:25;;;;;;;0.82;0.50;;;3.80;99.90;;;;;;4975179;28;20205;-84
2021/03/14 02:38:54;;;;;;;1.20;0.50;;;3.80;99.90;;;;;;4976680;28;20244;-84
2021/03/14 02:41:22;;;;;;;1.80;0.50;;;4.10;99.90;;;;;;4975921;28;20673;-84
2021/03/14 02:43:48;;;;;;;0.60;0.50;;;3.80;99.90;;;;;;4974405;28;20295;-85
2021/03/14 02:46:17;;;;;;;0.73;0.45;;;3.70;99.90;;;;;;4975608;28;20756;-82
2021/03/14 02:48:43;;;;;;;0.68;0.50;;;3.70;99.90;;;;;;4975041;28;20642;-84
2021/03/14 02:51:12;;;;;;;0.95;0.85;;;3.70;99.90;;;;;;4975767;28;20292;-83
2021/03/14 02:53:39;;;;;;;0.80;0.60;;;3.60;99.90;;;;;;4975729;28;20299;-88
2021/03/14 02:56:07;;;;;;;0.93;0.85;;;3.60;99.90;;;;;;4975359;28;20288;-84
2021/03/14 02:58:37;;;;;;;0.70;0.70;;;3.60;99.90;;;;;;4955626;28;20217;-85
2021/03/14 03:01:04;;;;;;;0.50;0.50;;;3.60;99.90;;;;;;4956386;28;20260;-89
2021/03/14 03:03:32;;;;;;;0.90;0.80;;;3.60;99.90;;;;;;4954918;28;20737;-85
2021/03/14 03:06:00;;;;;;;0.60;0.60;;;3.60;99.90;;;;;;4955988;29;20658;-85
2021/03/14 03:08:27;;;;;;;0.70;0.70;;;3.60;99.90;;;;;;4956209;28;20308;-86
2021/03/14 03:10:56;;;;;;;0.70;0.60;;;3.60;99.90;;;;;;4956226;28;20292;-86
2021/03/14 03:13:23;;;;;;;0.95;0.50;;;3.60;99.90;;;;;;4972953;28;20665;-87
2021/03/14 03:15:51;;;;;;;1.70;1.52;;;3.60;99.90;;;;;;4975203;28;20299;-86
2021/03/14 03:18:20;;;;;;;1.75;1.00;;;3.60;99.90;;;;;;4973670;28;20367;-83
2021/03/14 03:20:48;;;;;;;2.78;0.95;;;3.80;99.90;;;;;;4975900;28;20678;-88
2021/03/14 03:23:14;;;;;;;1.45;1.00;;;3.70;99.90;;;;;;4977193;28;20312;-86
2021/03/14 03:25:41;;;;;;;0.98;0.82;;;3.50;99.90;;;;;;4975748;28;20248;-86
2021/03/14 03:28:07;;;;;;;1.15;1.05;;;3.60;99.90;;;;;;4974220;28;20209;-85
2021/03/14 03:30:34;;;;;;;1.02;0.98;;;3.70;99.90;;;;;;4976074;28;20701;-82
2021/03/14 03:33:00;;;;;;;2.05;1.85;;;3.70;99.90;;;;;;4975878;28;20320;-82
2021/03/14 03:35:29;;;;;;;2.45;0.93;;;3.60;99.90;;;;;;4976822;28;20309;-89
2021/03/14 03:37:57;;;;;;;0.60;0.60;;;3.70;99.90;;;;;;4975631;28;20215;-88
2021/03/14 03:40:26;;;;;;;1.70;1.42;;;3.70;99.90;;;;;;4994699;28;20236;-86
2021/03/14 03:43:01;;;;;;;1.00;0.90;;;3.70;99.90;;;;;;4996927;28;20213;-86
2021/03/14 03:45:31;;;;;;;1.42;1.10;;;3.70;99.90;;;;;;4979551;28;20232;-83
2021/03/14 03:47:59;;;;;;;2.70;0.90;;;3.70;99.90;;;;;;4990637;28;20257;-87
2021/03/14 03:50:27;;;;;;;1.83;0.82;;;3.70;99.90;;;;;;4999680;28;20189;-86
2021/03/14 03:52:57;;;;;;;4.15;1.48;;;3.70;99.90;;;;;;4998213;28;20224;-85
2021/03/14 03:55:24;;;;;;;2.70;1.10;;;3.70;99.90;;;;;;4980766;28;20201;-85
2021/03/14 03:57:51;;;;;;;1.77;0.90;;;3.70;99.90;;;;;;4980851;28;20291;-85
2021/03/14 04:00:20;;;;;;;0.60;0.60;;;3.60;99.90;;;;;;4978156;28;20225;-87
2021/03/14 04:02:47;;;;;;;1.33;0.98;;;3.50;99.90;;;;;;4973122;28;20320;-89
2021/03/14 04:05:17;;;;;;;1.25;0.73;;;3.60;99.90;;;;;;4975151;28;20299;-89
2021/03/14 04:07:49;;;;;;;1.00;0.90;;;3.60;99.90;;;;;;4975282;28;20216;-85
2021/03/14 04:10:19;;;;;;;1.67;1.45;;;3.60;99.90;;;;;;4975128;28;20209;-86
2021/03/14 04:12:47;;;;;;;1.88;1.00;;;3.60;99.90;;;;;;4974525;28;20264;-86
2021/03/14 04:15:17;;;;;;;0.60;0.60;;;3.60;99.90;;;;;;4973875;28;20284;-86
2021/03/14 04:17:44;;;;;;;0.98;0.90;;;3.60;99.90;;;;;;4973699;28;20240;-85
2021/03/14 04:20:15;;;;;;;1.83;1.50;;;3.60;99.90;;;;;;4973906;28;20632;-84
2021/03/14 04:22:45;;;;;;;2.03;1.17;;;3.60;99.90;;;;;;4974887;28;20251;-87
2021/03/14 04:25:14;;;;;;;1.30;1.13;;;3.70;99.90;;;;;;4974605;28;20691;-87
2021/03/14 04:27:42;;;;;;;1.50;1.05;;;3.70;99.90;;;;;;4974800;28;20240;-85
2021/03/14 04:30:10;;;;;;;3.03;1.15;;;3.80;99.90;;;;;;4973413;28;20275;-86
2021/03/14 04:32:37;;;;;;;1.40;1.00;;;3.70;99.90;;;;;;4973448;28;20292;-85
2021/03/14 04:35:07;;;;;;;1.20;1.10;;;3.80;99.90;;;;;;4974505;28;20243;-85
2021/03/14 04:37:36;;;;;;;1.08;0.90;;;3.70;99.90;;;;;;4974637;28;20363;-88
2021/03/14 04:40:05;;;;;;;1.48;1.30;;;3.80;99.90;;;;;;4974440;28;20279;-87
2021/03/14 04:42:31;;;;;;;0.75;0.75;;;3.70;99.90;;;;;;4974270;28;20260;-86
2021/03/14 04:44:59;;;;;;;0.80;0.70;;;3.70;99.90;;;;;;4974152;28;20236;-87
2021/03/14 04:47:25;;;;;;;1.55;1.08;;;3.70;99.90;;;;;;4973141;28;20252;-85
2021/03/14 04:49:52;;;;;;;0.68;0.68;;;3.70;99.90;;;;;;4973522;28;20641;-89
2021/03/14 04:52:19;;;;;;;1.75;0.80;;;3.70;99.90;;;;;;4974441;28;20272;-87
2021/03/14 04:54:48;;;;;;;1.30;0.70;;;3.70;99.90;;;;;;4974130;28;20204;-87
2021/03/14 04:57:16;;;;;;;2.47;0.80;;;3.70;99.90;;;;;;4974104;28;20304;-84
2021/03/14 04:59:46;;;;;;;0.55;0.55;;;3.70;99.90;;;;;;4974741;28;20295;-85
2021/03/14 05:02:14;;;;;;;2.85;1.00;;;3.70;99.90;;;;;;4976306;28;20255;-85
2021/03/14 05:04:42;;;;;;;0.80;0.80;;;3.70;99.90;;;;;;4977948;28;20268;-87
2021/03/14 05:07:09;;;;;;;1.10;1.00;;;3.70;99.90;;;;;;4978212;28;20574;-83
2021/03/14 05:09:37;;;;;;;1.10;0.80;;;3.70;99.90;;;;;;4978258;28;20320;-84
2021/03/14 05:12:05;;;;;;;1.20;1.05;;;3.70;99.90;;;;;;4976637;28;20229;-84
2021/03/14 05:14:34;;;;;;;0.80;0.80;;;3.60;99.90;;;;;;4977330;28;20224;-84
2021/03/14 05:17:01;;;;;;;1.30;0.70;;;3.80;99.90;;;;;;4976199;28;20213;-85
2021/03/14 05:19:30;;;;;;;1.00;0.82;;;3.60;99.90;;;;;;4976222;28;20292;-87
2021/03/14 05:21:57;;;;;;;2.67;1.17;;;3.60;99.90;;;;;;4977866;28;20711;-86
2021/03/14 05:24:25;;;;;;;3.53;0.85;;;3.50;99.90;;;;;;4977507;28;20351;-91
2021/03/14 05:26:52;;;;;;;9.27;2.78;;;3.60;99.90;;;;;;4978092;28;20736;-87
2021/03/14 05:29:18;;;;;;;0.90;0.90;;;3.70;99.90;;;;;;4976438;28;20316;-83
2021/03/14 05:31:45;;;;;;;1.08;0.82;;;3.70;99.90;;;;;;4975972;28;20213;-84
2021/03/14 05:34:15;;;;;;;1.13;1.05;;;3.80;99.90;;;;;;4977620;28;20300;-87
2021/03/14 05:36:42;;;;;;;2.70;0.93;;;3.80;99.90;;;;;;4977398;28;20229;-90
2021/03/14 05:39:09;;;;;;;1.67;0.93;;;3.90;99.90;;;;;;4977482;28;20784;-88
2021/03/14 05:41:36;;;;;;;4.80;0.93;;;3.90;99.90;;;;;;4976300;28;20725;-86
2021/03/14 05:44:05;;;;;;;1.30;1.00;;;3.90;99.90;;;;;;4977075;28;20311;-83
2021/03/14 05:46:32;;;;;;;1.25;0.90;;;4.00;99.90;;;;;;4976175;28;20296;-86
2021/03/14 05:48:59;;;;;;;1.95;1.15;;;4.00;99.90;;;;;;4976708;28;20349;-86
2021/03/14 05:51:27;;;;;;;3.80;1.48;;;4.00;99.90;;;;;;4975934;28;20299;-83
2021/03/14 05:53:56;;;;;;;2.35;1.00;;;4.00;99.90;;;;;;4977271;28;20259;-88
2021/03/14 05:56:23;;;;;;;1.13;0.98;;;4.10;99.90;;;;;;4976979;28;20672;-83
2021/03/14 05:58:50;;;;;;;1.02;0.93;;;4.00;99.90;;;;;;4976983;28;20205;-88
2021/03/14 06:01:20;;;;;;;3.42;0.95;;;4.00;99.90;;;;;;4976712;28;20216;-85
2021/03/14 06:03:47;;;;;;;1.58;1.25;;;4.10;99.90;;;;;;4974413;28;20634;-84
2021/03/14 06:06:14;;;;;;;1.30;1.20;;;4.10;99.90;;;;;;4973970;28;20288;-84
2021/03/14 06:08:41;;;;;;;2.08;0.88;;;4.10;99.90;;;;;;4976884;28;20219;-82
2021/03/14 06:11:10;;;;;;;1.00;0.90;;;4.10;99.90;;;;;;4976351;28;20209;-83
2021/03/14 06:13:37;;;;;;;3.00;1.13;;;4.10;99.90;;;;;;4980561;28;20248;-83
2021/03/14 06:16:04;;;;;;;1.50;1.33;;;4.20;99.90;;;;;;4975544;28;20235;-84
2021/03/14 06:18:31;;;;;;;0.95;0.77;;;4.30;99.90;;;;;;4973532;28;20291;-85
2021/03/14 06:20:57;;;;;;;1.30;1.20;;;4.30;99.90;;;;;;4976388;28;20236;-88
2021/03/14 06:23:24;;;;;;;2.58;1.30;;;4.40;99.90;;;;;;4976251;28;20292;-84
2021/03/14 06:25:53;;;;;;;1.60;1.13;;;4.40;99.90;;;;;;4976273;28;20297;-83
2021/03/14 06:28:33;;;;;;;3.72;1.45;;;4.40;99.90;;;;;;4976696;28;20720;-84
2021/03/14 06:31:15;;;;;;;4.07;1.10;;;4.40;99.90;;;;;;4976707;28;20211;-85
2021/03/14 06:33:42;;;;;;;1.05;1.05;;;4.30;99.90;;;;;;4975224;28;20338;-83
2021/03/14 06:36:12;;;;;;;1.13;0.90;;;4.30;99.90;;;;;;4976293;28;20828;-84
2021/03/14 06:38:38;;;;;;;1.20;1.10;;;4.40;99.90;;;;;;4976533;28;20296;-83
2021/03/14 06:41:16;;;;;;;1.80;1.08;;;4.40;99.90;;;;;;4976619;28;20226;-84
2021/03/14 06:43:46;;;;;;;6.47;1.85;;;4.40;99.90;;;;;;4977327;28;20248;-89
2021/03/14 06:46:25;;;;;;;1.30;1.15;;;4.40;99.90;;;;;;4980144;28;20217;-85
2021/03/14 06:49:09;;;;;;;1.55;1.30;;;4.40;99.90;;;;;;4978995;28;20217;-83
2021/03/14 06:51:36;;;;;;;0.98;0.73;;;4.40;99.90;;;;;;4997004;28;20197;-84
2021/03/14 06:54:19;;;;;;;1.95;1.30;;;4.40;99.90;;;;;;4960654;28;20223;-88
2021/03/14 06:57:10;;;;;;;1.13;0.95;;;4.50;99.90;;;;;;4993321;28;20228;-83
2021/03/14 06:59:42;;;;;;;3.20;1.40;;;4.50;99.90;;;;;;4978888;28;20626;-84
2021/03/14 07:02:10;;;;;;;1.20;0.80;;;4.50;99.90;;;;;;4974216;28;20223;-86
2021/03/14 07:04:45;;;;;;;1.02;0.85;;;4.70;99.90;;;;;;4975725;28;20236;-91
2021/03/14 07:07:23;;;;;;;0.80;0.80;;;4.60;99.90;;;;;;4940791;28;20208;-84
2021/03/14 07:09:55;;;;;;;2.53;1.50;;;4.70;99.90;;;;;;4976380;28;20299;-81
2021/03/14 07:12:25;;;;;;;6.25;1.23;;;4.70;99.90;;;;;;4975571;28;20229;-83
2021/03/14 07:14:53;;;;;;;2.20;1.15;;;4.70;99.90;;;;;;4974595;28;20288;-83
2021/03/14 07:17:31;;;;;;;2.25;2.05;;;4.80;99.90;;;;;;4974838;28;20292;-83
2021/03/14 07:19:59;;;;;;;6.90;1.77;;;4.90;99.90;;;;;;4975293;28;20208;-83
2021/03/14 07:22:26;;;;;;;1.33;1.23;;;5.00;99.90;;;;;;4975261;28;20351;-86
2021/03/14 07:24:52;;;;;;;1.58;1.15;;;5.20;99.90;;;;;;4975522;28;20300;-88
2021/03/14 07:27:24;;;;;;;4.07;2.13;;;5.10;99.90;;;;;;4975432;28;20213;-83
2021/03/14 07:29:53;;;;;;;0.80;0.80;;;5.10;99.90;;;;;;4975511;28;20669;-85
2021/03/14 07:32:21;;;;;;;1.58;1.27;;;5.20;99.90;;;;;;4973418;28;20844;-83
2021/03/14 07:34:47;;;;;;;4.50;1.20;;;5.30;99.90;;;;;;4975896;28;20239;-83
2021/03/14 07:37:14;;;;;;;3.28;1.80;;;5.30;99.90;;;;;;4974675;28;20740;-87
2021/03/14 07:39:41;;;;;;;1.40;1.10;;;5.10;99.90;;;;;;4975806;28;20336;-83
2021/03/14 07:42:08;;;;;;;3.70;0.90;;;5.10;99.90;;;;;;4976656;28;20311;-87
2021/03/14 07:44:34;;;;;;;3.20;1.55;;;4.90;99.90;;;;;;4975157;28;20593;-88
2021/03/14 07:47:03;;;;;;;1.48;1.20;;;5.00;99.90;;;;;;4955382;29;20296;-84
2021/03/14 07:49:29;;;;;;;2.28;1.00;;;5.00;99.90;;;;;;4956714;28;20269;-83
2021/03/14 07:51:58;;;;;;;2.10;1.27;;;5.00;99.90;;;;;;4989512;28;20208;-85
2021/03/14 07:54:28;;;;;;;7.03;1.98;;;5.00;99.90;;;;;;4995017;28;20628;-81
2021/03/14 07:56:59;;;;;;;1.77;1.40;;;4.90;99.90;;;;;;4979324;28;20247;-87
2021/03/14 07:59:30;;;;;;;3.28;1.65;;;5.10;99.90;;;;;;4991530;28;20213;-86
2021/03/14 08:02:28;;;;;;;1.55;1.45;;;5.10;99.90;;;;;;4997469;28;20197;-85
2021/03/14 08:04:58;;;;;;;2.67;1.90;;;5.10;99.90;;;;;;4994786;28;20216;-86
2021/03/14 08:07:41;;;;;;;1.77;1.10;;;5.00;99.90;;;;;;4981084;28;20229;-86
2021/03/14 08:10:10;;;;;;;2.75;1.50;;;5.00;99.90;;;;;;4977947;28;20247;-84
2021/03/14 08:12:37;;;;;;;2.55;1.40;;;5.00;99.90;;;;;;4976321;28;20228;-85
2021/03/14 08:15:21;;;;;;;4.15;1.90;;;5.00;99.90;;;;;;4974614;28;20268;-87
2021/03/14 08:17:47;;;;;;;0.70;0.70;;;5.20;99.90;;;;;;4974338;28;20204;-83
2021/03/14 08:20:16;;;;;;;2.75;1.05;;;5.20;99.90;;;;;;4974766;28;20303;-84
2021/03/14 08:22:46;;;;;;;9.02;1.02;;;5.40;99.90;;;;;;4973615;28;20287;-85
2021/03/14 08:25:24;;;;;;;1.20;0.73;;;5.50;99.90;;;;;;4974550;28;20215;-86
2021/03/14 08:27:54;;;;;;;3.00;1.65;;;5.50;99.90;;;;;;4975917;28;20247;-83
2021/03/14 08:30:43;;;;;;;2.30;1.27;;;5.70;99.90;;;;;;4977460;28;20209;-89
2021/03/14 08:33:26;;;;;;;4.85;2.63;;;5.70;99.90;;;;;;4967082;28;20233;-88
2021/03/14 08:35:55;;;;;;;0.98;0.98;;;5.80;99.90;;;;;;4963989;28;20260;-86
2021/03/14 08:41:30;;;;;;;1.67;1.10;;;5.80;99.90;;;;;;5134218;27;20562;-88
2021/03/14 08:44:05;;;;;;;3.55;1.17;;;5.70;99.90;;;;;;5134655;27;20204;-93
2021/03/14 08:47:06;;;;;;;2.38;1.27;;;5.70;99.90;;;;;;5134832;28;20714;-93
2021/03/14 08:49:46;;;;;;;1.48;0.90;;;6.20;99.90;;;;;;5131801;27;20286;-92
2021/03/14 08:52:13;;;;;;;2.65;0.80;;;6.10;99.90;;;;;;5132872;27;20235;-86
2021/03/14 08:54:41;;;;;;;2.08;1.42;;;6.60;99.90;;;;;;5132732;27;20314;-86
2021/03/14 08:57:10;;;;;;;1.63;1.02;;;6.00;99.90;;;;;;5133306;27;20279;-86
2021/03/14 08:59:45;;;;;;;1.92;1.20;;;6.10;99.90;;;;;;5133409;27;20223;-86
2021/03/14 09:02:19;;;;;;;1.80;1.55;;;6.40;99.90;;;;;;5131272;27;20211;-88
2021/03/14 09:04:45;;;;;;;1.20;1.10;;;6.30;99.90;;;;;;5133616;27;20279;-90
2021/03/14 09:07:12;;;;;;;1.15;0.88;;;6.30;99.90;;;;;;5132772;27;20294;-90
2021/03/14 09:09:40;;;;;;;1.25;1.15;;;6.50;99.90;;;;;;5132729;27;20235;-88
2021/03/14 09:12:11;;;;;;;2.15;0.82;;;6.70;99.90;;;;;;5131963;27;20732;-87
2021/03/14 09:14:39;;;;;;;1.80;0.90;;;6.70;99.90;;;;;;5131208;27;20595;-79
2021/03/14 09:17:10;;;;;;;2.17;0.77;;;6.40;99.90;;;;;;5130103;27;20294;-80
2021/03/14 09:19:42;;;;;;;1.13;0.80;;;6.30;99.90;;;;;;5130382;27;20585;-85
2021/03/14 09:22:13;;;;;;;0.80;0.80;;;6.20;99.90;;;;;;5131183;27;20292;-83
2021/03/14 09:24:42;;;;;;;2.25;0.60;;;6.10;99.90;;;;;;5133587;27;20199;-88
2021/03/14 09:27:17;;;;;;;0.93;0.70;;;6.10;99.90;;;;;;5134300;27;20203;-84
2021/03/14 09:29:51;;;;;;;0.75;0.75;;;6.20;99.90;;;;;;5132004;27;20316;-89
2021/03/14 09:32:21;;;;;;;1.05;0.90;;;6.10;99.90;;;;;;5132307;27;20199;-83
2021/03/14 09:34:49;;;;;;;1.00;1.00;;;6.10;99.90;;;;;;5131684;27;20287;-84
2021/03/14 09:37:29;;;;;;;2.70;0.73;;;6.70;99.90;;;;;;5131608;27;20343;-89
2021/03/14 09:40:15;;;;;;;2.35;1.20;;;6.60;99.90;;;;;;5132616;27;20239;-85
2021/03/14 09:42:44;;;;;;;4.30;1.40;;;6.20;99.90;;;;;;5132425;27;20290;-86
2021/03/14 09:45:13;;;;;;;0.70;0.70;;;6.30;99.90;;;;;;5132362;27;20304;-86
2021/03/14 09:47:58;;;;;;;0.50;0.50;;;6.30;99.90;;;;;;5130512;27;20294;-86
2021/03/14 09:50:25;;;;;;;3.38;1.13;;;6.30;99.90;;;;;;5109353;28;20285;-85
2021/03/14 09:52:52;;;;;;;5.55;1.20;;;6.40;99.90;;;;;;5096164;28;20232;-88
2021/03/14 09:55:23;;;;;;;1.10;0.60;;;6.90;99.90;;;;;;5097142;28;20258;-90
2021/03/14 09:57:54;;;;;;;0.90;0.65;;;7.00;99.30;;;;;;5097136;28;20227;-88
2021/03/14 10:00:22;;;;;;;1.30;0.90;;;6.80;99.50;;;;;;5097547;28;20271;-86
2021/03/14 10:02:49;;;;;;;1.45;0.90;;;6.80;99.90;;;;;;5095850;28;20201;-85
2021/03/14 10:05:16;;;;;;;1.10;1.00;;;6.90;99.90;;;;;;5095769;28;20283;-86
2021/03/14 10:07:42;;;;;;;1.13;0.90;;;6.90;99.50;;;;;;5102175;28;20235;-85
2021/03/14 10:10:11;;;;;;;1.48;0.85;;;7.10;99.50;;;;;;5116513;28;20453;-88
2021/03/14 10:12:39;;;;;;;1.30;0.82;;;7.20;99.10;;;;;;5116642;28;20294;-85
2021/03/14 10:15:07;;;;;;;5.78;1.23;;;7.10;99.00;;;;;;5116917;28;20548;-90
2021/03/14 10:17:34;;;;;;;5.03;1.03;;;7.00;99.70;;;;;;5115064;28;20569;-88
2021/03/14 10:20:01;;;;;;;1.42;0.80;;;7.10;99.10;;;;;;5114924;28;20576;-88
2021/03/14 10:22:29;;;;;;;3.45;1.05;;;7.10;98.50;;;;;;5116353;28;20241;-87
2021/03/14 10:24:56;;;;;;;1.27;0.90;;;7.00;98.70;;;;;;5116354;28;20287;-90
2021/03/14 10:27:23;;;;;;;0.97;0.97;;;7.20;99.10;;;;;;5117248;28;20200;-88
2021/03/14 10:29:56;;;;;;;2.22;1.42;;;7.60;99.10;;;;;;5115999;28;20454;-87
2021/03/14 10:32:25;;;;;;;1.83;1.33;;;7.40;98.60;;;;;;5115520;28;20260;-88
2021/03/14 10:34:52;;;;;;;0.93;0.73;;;7.60;98.70;;;;;;5116760;28;20466;-86
2021/03/14 10:37:30;;;;;;;3.07;0.67;;;7.20;98.40;;;;;;5116319;28;20258;-92
2021/03/14 10:40:01;;;;;;;1.42;0.70;;;7.20;99.60;;;;;;5115277;28;20584;-87
2021/03/14 10:42:32;;;;;;;1.38;0.80;;;7.30;99.70;;;;;;5115309;28;20435;-83
2021/03/14 10:45:05;;;;;;;3.10;1.20;;;8.10;99.90;;;;;;5115262;28;20204;-83
2021/03/14 10:47:33;;;;;;;2.72;2.40;;;7.20;99.90;;;;;;5114676;28;20493;-84
2021/03/14 10:50:16;;;;;;;1.30;0.83;;;7.30;99.90;;;;;;5115183;28;20216;-87
2021/03/14 10:52:43;;;;;;;1.05;0.75;;;7.20;98.50;;;;;;5115467;28;20449;-89
2021/03/14 10:55:31;;;;;;;2.30;0.65;;;7.30;98.00;;;;;;5116072;28;20216;-87
2021/03/14 10:58:21;;;;;;;1.13;1.03;;;7.20;97.90;;;;;;5115777;28;20279;-84
2021/03/14 11:00:50;;;;;;;1.17;1.00;;;7.40;99.00;;;;;;5105145;28;20932;-89
2021/03/14 11:03:28;;;;;;;1.48;0.90;;;7.40;98.40;;;;;;5114907;28;20454;-88
2021/03/14 11:06:11;;;;;;;2.20;1.00;;;7.50;98.70;;;;;;5116283;28;20196;-84
2021/03/14 11:09:03;;;;;;;0.80;0.73;;;7.60;97.90;;;;;;5114865;28;20461;-85
2021/03/14 11:11:41;;;;;;;1.90;1.10;;;8.00;98.80;;;;;;5100607;28;20945;-82
2021/03/14 11:14:34;;;;;;;7.60;1.00;;;8.60;97.40;;;;;;5115529;28;20450;-79
2021/03/14 11:17:12;;;;;;;3.50;1.23;;;8.60;96.80;;;;;;5114002;28;21206;-91
2021/03/14 11:19:42;;;;;;;1.60;0.80;;;8.70;96.20;;;;;;5114710;28;20477;-88
2021/03/14 11:22:13;;;;;;;0.70;0.70;;;8.70;96.10;;;;;;5119182;27;20501;-92
2021/03/14 11:24:39;;;;;;;0.90;0.80;;;8.50;96.30;;;;;;5115953;28;20858;-85
2021/03/14 11:27:07;;;;;;;0.70;0.70;;;8.30;95.00;;;;;;5114863;28;20481;-85
2021/03/14 11:29:33;;;;;;;0.90;0.80;;;7.90;94.60;;;;;;5114965;28;20934;-87
2021/03/14 11:32:00;;;;;;;2.00;0.67;;;8.00;94.90;;;;;;5114422;28;20496;-91
2021/03/14 11:34:26;;;;;;;1.20;0.73;;;7.90;94.90;;;;;;5115511;28;20457;-87
2021/03/14 11:36:54;;;;;;;3.20;1.00;;;8.50;95.90;;;;;;5115502;28;20485;-88
2021/03/14 11:39:20;;;;;;;1.43;0.83;;;8.80;95.40;;;;;;5114730;28;20528;-89
2021/03/14 11:41:48;;;;;;;5.73;2.20;;;8.60;93.90;;;;;;5115366;28;20490;-89
2021/03/14 11:44:14;;;;;;;2.43;1.60;;;8.60;94.30;;;;;;5116091;28;20555;-89
2021/03/14 11:46:42;;;;;;;1.90;1.07;;;8.50;94.10;;;;;;5115359;28;20489;-84
2021/03/14 11:49:08;;;;;;;2.80;1.00;;;8.30;94.10;;;;;;5117907;28;20504;-88
2021/03/14 11:51:35;;;;;;;2.47;1.37;;;8.50;94.70;;;;;;5114923;28;20475;-87
2021/03/14 11:54:02;;;;;;;6.60;1.83;;;8.80;93.90;;;;;;5115752;27;20477;-90
2021/03/14 11:56:29;;;;;;;0.93;0.73;;;8.50;93.20;;;;;;5129166;28;20477;-89
2021/03/14 11:58:57;;;;;;;2.50;0.67;;;8.40;93.30;;;;;;5133862;28;20464;-85
2021/03/14 12:01:25;;;;;;;2.80;2.07;;;8.30;93.20;;;;;;5124736;28;20542;-88
2021/03/14 12:03:53;;;;;;;3.33;1.57;;;8.50;93.80;;;;;;5129119;28;20445;-86
2021/03/14 12:06:19;;;;;;;0.90;0.70;;;8.20;93.40;;;;;;5135935;28;20468;-87
2021/03/14 12:08:46;;;;;;;4.03;1.20;;;8.40;93.60;;;;;;5135757;28;20476;-81
2021/03/14 12:11:13;;;;;;;1.23;1.10;;;8.00;93.40;;;;;;5124665;28;20454;-85
2021/03/14 12:13:40;;;;;;;2.67;1.10;;;7.90;94.00;;;;;;5119627;28;20497;-84
2021/03/14 12:16:08;;;;;;;1.40;1.00;;;8.10;94.50;;;;;;5116064;28;21023;-87
2021/03/14 12:18:34;;;;;;;1.60;0.80;;;8.20;93.70;;;;;;5114338;28;20446;-85
2021/03/14 12:21:01;;;;;;;1.27;1.17;;;8.10;94.20;;;;;;5116571;28;20548;-85
2021/03/14 12:23:29;;;;;;;3.23;0.90;;;8.00;94.70;;;;;;5117081;28;20461;-85
2021/03/14 12:25:57;;;;;;;2.70;1.47;;;8.20;94.80;;;;;;5118458;28;20450;-87
2021/03/14 12:28:24;;;;;;;2.00;0.80;;;6.70;94.40;;;;;;5114033;28;20446;-88
2021/03/14 12:30:51;;;;;;;2.17;1.10;;;8.00;94.70;;;;;;5114009;28;20450;-89
2021/03/14 12:33:17;;;;;;;0.83;0.83;;;7.80;94.90;;;;;;5110255;28;20496;-85
2021/03/14 12:35:44;;;;;;;2.40;1.13;;;7.60;95.40;;;;;;5114042;28;20486;-87
2021/03/14 12:38:11;;;;;;;1.33;1.00;;;7.60;96.20;;;;;;5115434;28;20694;-89
2021/03/14 12:40:37;;;;;;;0.80;0.80;;;7.50;97.50;;;;;;5096574;28;20577;-85
2021/03/14 12:43:04;;;;;;;1.38;0.90;;;7.40;98.40;;;;;;5114624;28;20250;-88
2021/03/14 12:45:31;;;;;;;2.53;1.20;;;7.20;99.90;;;;;;5114734;28;20738;-84
2021/03/14 12:47:58;;;;;;;2.80;1.45;;;7.10;99.90;;;;;;5112758;28;20485;-85
2021/03/14 12:50:26;;;;;;;0.70;0.70;;;7.10;99.90;;;;;;5114464;28;20227;-87
2021/03/14 12:52:53;;;;;;;2.73;1.00;;;7.30;99.90;;;;;;5114605;28;20200;-87
2021/03/14 12:55:20;;;;;;;0.90;0.50;;;7.10;99.90;;;;;;5115024;28;20493;-88
2021/03/14 12:57:46;;;;;;;1.70;0.80;;;7.00;99.90;;;;;;5115423;28;20442;-88
2021/03/14 13:00:13;;;;;;;2.05;1.02;;;7.00;99.90;;;;;;5114792;28;20263;-91
2021/03/14 13:02:44;;;;;;;2.55;1.00;;;6.90;99.90;;;;;;5113315;28;20291;-86
2021/03/14 13:05:11;;;;;;;1.53;0.90;;;7.00;99.90;;;;;;5114851;28;20261;-88
2021/03/14 13:07:38;;;;;;;1.70;0.90;;;6.90;99.90;;;;;;5113925;28;20536;-88
2021/03/14 13:10:07;;;;;;;1.42;0.95;;;7.00;99.90;;;;;;5113156;28;20544;-87
2021/03/14 13:12:34;;;;;;;1.47;0.60;;;7.30;99.90;;;;;;5113850;28;20299;-91